TimeMDT,TemperatureF,Dew PointF,Humidity,Sea Level PressureIn,VisibilityMPH,Wind Direction,Wind SpeedMPH,Gust SpeedMPH,PrecipitationIn,Events,Conditions,WindDirDegrees,DateUTC
12:15 AM,49.3,44.6,84,30.20,10.0,ENE,3.5,-,N/A,,Clear,70,2013-09-20 06:15:00
12:35 AM,50.2,44.1,79,30.20,10.0,Calm,Calm,-,N/A,,Clear,0,2013-09-20 06:35:00
12:55 AM,49.1,43.9,82,30.20,10.0,Calm,Calm,-,N/A,,Clear,0,2013-09-20 06:55:00
1:15 AM,48.9,44.1,83,30.20,10.0,Calm,Calm,-,N/A,,Clear,0,2013-09-20 07:15:00
1:35 AM,48.6,43.7,83,30.19,10.0,Calm,Calm,-,N/A,,Clear,0,2013-09-20 07:35:00
1:55 AM,47.3,43.3,86,30.19,10.0,NNE,3.5,-,N/A,,Clear,30,2013-09-20 07:55:00
2:15 AM,46.8,43.2,87,30.19,10.0,NNE,3.5,-,N/A,,Clear,30,2013-09-20 08:15:00
2:35 AM,46.4,42.8,87,30.19,10.0,Calm,Calm,-,N/A,,Clear,0,2013-09-20 08:35:00
2:55 AM,46.6,42.6,86,30.18,10.0,Calm,Calm,-,N/A,,Clear,0,2013-09-20 08:55:00
3:15 AM,46.4,42.1,85,30.18,10.0,Calm,Calm,-,N/A,,Clear,0,2013-09-20 09:15:00
3:35 AM,46.4,41.9,84,30.18,10.0,Calm,Calm,-,N/A,,Clear,0,2013-09-20 09:35:00
3:55 AM,45.5,41.5,86,30.17,10.0,Calm,Calm,-,N/A,,Clear,0,2013-09-20 09:55:00
4:15 AM,44.8,41.5,88,30.17,10.0,Calm,Calm,-,N/A,,Clear,0,2013-09-20 10:15:00
4:35 AM,43.7,40.8,90,30.17,10.0,Calm,Calm,-,N/A,,Clear,0,2013-09-20 10:35:00
4:55 AM,45.5,41.4,85,30.17,10.0,Calm,Calm,-,N/A,,Clear,0,2013-09-20 10:55:00
5:15 AM,43.7,40.8,90,30.18,10.0,Calm,Calm,-,N/A,,Clear,0,2013-09-20 11:15:00
5:35 AM,43.0,40.6,91,30.17,10.0,Calm,Calm,-,N/A,,Clear,0,2013-09-20 11:35:00
5:55 AM,42.4,40.3,92,30.18,10.0,Calm,Calm,-,N/A,,Clear,0,2013-09-20 11:55:00
6:15 AM,42.8,40.5,91,30.18,10.0,Calm,Calm,-,N/A,,Clear,0,2013-09-20 12:15:00
6:35 AM,42.8,40.5,91,30.18,10.0,Calm,Calm,-,N/A,,Clear,0,2013-09-20 12:35:00
6:55 AM,42.6,40.3,91,30.18,10.0,Calm,Calm,-,N/A,,Clear,0,2013-09-20 12:55:00
7:15 AM,43.9,41.9,93,30.18,10.0,Calm,Calm,-,N/A,,Clear,0,2013-09-20 13:15:00
7:35 AM,45.3,43.3,93,30.18,10.0,Calm,Calm,-,N/A,,Clear,0,2013-09-20 13:35:00
7:55 AM,48.2,45.0,89,30.18,10.0,Calm,Calm,-,N/A,,Clear,0,2013-09-20 13:55:00
8:15 AM,50.4,46.0,85,30.18,10.0,Calm,Calm,-,N/A,,Clear,0,2013-09-20 14:15:00
8:35 AM,52.2,45.0,76,30.19,10.0,Calm,Calm,-,N/A,,Clear,0,2013-09-20 14:35:00
8:55 AM,54.1,46.0,74,30.18,10.0,Calm,Calm,-,N/A,,Scattered Clouds,0,2013-09-20 14:55:00
9:15 AM,55.9,45.7,68,30.19,10.0,Calm,Calm,-,N/A,,Clear,0,2013-09-20 15:15:00
9:35 AM,56.8,47.8,72,30.18,10.0,Calm,Calm,-,N/A,,Clear,0,2013-09-20 15:35:00
9:55 AM,57.9,46.4,65,30.18,10.0,Calm,Calm,-,N/A,,Clear,0,2013-09-20 15:55:00
10:15 AM,59.5,47.1,63,30.18,10.0,Calm,Calm,-,N/A,,Clear,0,2013-09-20 16:15:00
10:35 AM,61.7,47.1,59,30.17,10.0,Calm,Calm,-,N/A,,Clear,0,2013-09-20 16:35:00
10:55 AM,63.0,46.9,56,30.17,10.0,Calm,Calm,-,N/A,,Clear,0,2013-09-20 16:55:00
11:15 AM,64.8,47.8,54,30.16,10.0,Calm,Calm,-,N/A,,Clear,0,2013-09-20 17:15:00
11:35 AM,66.9,48.7,52,30.15,10.0,Calm,Calm,-,N/A,,Clear,0,2013-09-20 17:35:00
11:55 AM,68.5,49.1,50,30.13,10.0,Calm,Calm,-,N/A,,Clear,0,2013-09-20 17:55:00
12:15 PM,69.6,49.1,48,30.12,10.0,SSW,3.5,-,N/A,,Clear,200,2013-09-20 18:15:00
12:35 PM,71.4,49.3,45,30.11,10.0,WSW,8.1,-,N/A,,Clear,250,2013-09-20 18:35:00
12:55 PM,72.0,49.6,45,30.11,10.0,SW,8.1,-,N/A,,Clear,220,2013-09-20 18:55:00
1:15 PM,71.1,48.4,44,30.10,10.0,Calm,Calm,-,N/A,,Clear,0,2013-09-20 19:15:00
1:35 PM,72.9,49.1,43,30.09,10.0,SW,3.5,-,N/A,,Clear,230,2013-09-20 19:35:00
1:55 PM,72.9,48.7,42,30.07,10.0,WNW,5.8,-,N/A,,Clear,290,2013-09-20 19:55:00
2:15 PM,74.1,48.0,40,30.07,10.0,WSW,4.6,-,N/A,,Clear,250,2013-09-20 20:15:00
2:35 PM,74.3,47.7,39,30.07,10.0,SW,4.6,-,N/A,,Clear,230,2013-09-20 20:35:00
2:55 PM,75.7,45.0,33,30.06,10.0,WSW,5.8,-,N/A,,Clear,240,2013-09-20 20:55:00
3:15 PM,75.9,42.4,30,30.05,10.0,WSW,5.8,-,N/A,,Clear,240,2013-09-20 21:15:00
3:35 PM,76.5,43.9,31,30.05,10.0,WNW,9.2,-,N/A,,Clear,290,2013-09-20 21:35:00
3:55 PM,77.0,44.1,31,30.04,10.0,SW,6.9,-,N/A,,Clear,230,2013-09-20 21:55:00
4:15 PM,76.5,44.2,32,30.04,10.0,West,6.9,-,N/A,,Clear,260,2013-09-20 22:15:00
4:35 PM,76.3,45.0,33,30.03,10.0,West,4.6,-,N/A,,Clear,260,2013-09-20 22:35:00
4:55 PM,76.1,45.7,34,30.03,10.0,Calm,Calm,-,N/A,,Clear,0,2013-09-20 22:55:00
5:15 PM,75.9,45.5,34,30.03,10.0,Calm,Calm,-,N/A,,Clear,0,2013-09-20 23:15:00
5:35 PM,75.2,45.0,34,30.02,10.0,Calm,Calm,-,N/A,,Clear,0,2013-09-20 23:35:00
5:55 PM,74.8,45.7,35,30.01,10.0,Calm,Calm,-,N/A,,Clear,0,2013-09-20 23:55:00
6:15 PM,73.6,46.2,38,30.01,10.0,Calm,Calm,-,N/A,,Clear,0,2013-09-21 00:15:00
6:35 PM,72.0,48.6,43,30.01,10.0,Calm,Calm,-,N/A,,Clear,0,2013-09-21 00:35:00
6:55 PM,69.1,51.3,53,30.01,10.0,SSE,3.5,-,N/A,,Clear,160,2013-09-21 00:55:00
7:15 PM,66.2,51.4,59,30.01,10.0,Calm,Calm,-,N/A,,Clear,0,2013-09-21 01:15:00
7:35 PM,62.4,53.8,73,30.02,10.0,Calm,Calm,-,N/A,,Clear,0,2013-09-21 01:35:00
8:15 PM,60.4,52.2,74,30.03,2.5,East,3.5,-,N/A,,Haze,100,2013-09-21 02:15:00
8:35 PM,61.5,51.6,70,30.03,7.0,Calm,Calm,-,N/A,,Clear,0,2013-09-21 02:35:00
8:55 PM,59.7,51.1,73,30.03,7.0,Calm,Calm,-,N/A,,Clear,0,2013-09-21 02:55:00
9:15 PM,60.1,50.5,71,30.03,2.0,Calm,Calm,-,N/A,,Haze,0,2013-09-21 03:15:00
9:35 PM,58.6,50.2,73,30.03,3.0,East,4.6,-,N/A,,Haze,90,2013-09-21 03:35:00
9:55 PM,60.1,49.6,68,30.03,7.0,Calm,Calm,-,N/A,,Clear,0,2013-09-21 03:55:00
10:15 PM,59.7,49.1,68,30.03,10.0,Calm,Calm,-,N/A,,Clear,0,2013-09-21 04:15:00
10:35 PM,58.5,48.9,71,30.03,10.0,Calm,Calm,-,N/A,,Clear,0,2013-09-21 04:35:00
10:55 PM,58.5,48.4,69,30.03,5.0,Calm,Calm,-,N/A,,Haze,0,2013-09-21 04:55:00
11:15 PM,56.8,48.2,73,30.03,7.0,Calm,Calm,-,N/A,,Clear,0,2013-09-21 05:15:00
11:35 PM,59.2,47.3,65,30.03,4.0,Calm,Calm,-,N/A,,Haze,0,2013-09-21 05:35:00
11:55 PM,57.4,47.5,70,30.03,10.0,WSW,3.5,-,N/A,,Clear,240,2013-09-21 05:55:00